createdAt,value
2018-01-05T00:00:57.675Z,11.36
2018-01-05T00:01:57.740Z,11.50
2018-01-05T00:02:57.770Z,11.50
2018-01-05T00:03:57.815Z,11.39
2018-01-05T00:04:57.866Z,11.47
2018-01-05T00:05:57.911Z,11.57
2018-01-05T00:06:57.979Z,11.54
2018-01-05T00:07:57.999Z,11.61
2018-01-05T00:08:58.053Z,11.62
2018-01-05T00:09:58.096Z,11.53
2018-01-05T00:10:58.145Z,11.50
2018-01-05T00:11:58.211Z,11.38
2018-01-05T00:12:58.237Z,11.50
2018-01-05T00:13:58.282Z,11.44
2018-01-05T00:14:58.345Z,11.39
2018-01-05T00:15:58.376Z,11.39
2018-01-05T00:16:58.441Z,11.47
2018-01-05T00:17:58.475Z,11.53
2018-01-05T00:18:58.525Z,11.50
2018-01-05T00:19:58.571Z,11.41
2018-01-05T00:20:58.610Z,11.44
2018-01-05T00:21:58.691Z,11.41
2018-01-05T00:22:58.703Z,11.39
2018-01-05T00:23:58.751Z,11.49
2018-01-05T00:24:58.796Z,11.47
2018-01-05T00:25:58.849Z,11.52
2018-01-05T00:26:58.923Z,11.49
2018-01-05T00:27:58.938Z,11.50
2018-01-05T00:28:58.982Z,11.44
2018-01-05T00:29:59.032Z,11.38
2018-01-05T00:30:59.079Z,11.41
2018-01-05T00:31:59.156Z,11.44
2018-01-05T00:32:59.180Z,11.41
2018-01-05T00:33:59.215Z,11.46
2018-01-05T00:34:59.271Z,11.35
2018-01-05T00:35:59.310Z,11.34
2018-01-05T00:36:59.374Z,11.32
2018-01-05T00:37:59.402Z,11.34
2018-01-05T00:38:59.451Z,11.36
2018-01-05T00:39:59.498Z,11.29
2018-01-05T00:40:59.543Z,11.38
2018-01-05T00:41:59.613Z,11.47
2018-01-05T00:42:59.637Z,11.49
2018-01-05T00:43:59.686Z,11.53
2018-01-05T00:44:59.730Z,11.50
2018-01-05T00:45:59.776Z,11.47
2018-01-05T00:46:59.860Z,11.43
2018-01-05T00:49:36.327Z,11.29
2018-01-05T00:50:36.355Z,11.13
2018-01-05T00:51:36.405Z,11.09
2018-01-05T00:52:36.464Z,11.02
2018-01-05T00:53:36.492Z,11.03
2018-01-05T00:54:36.545Z,11.01
2018-01-05T00:55:36.589Z,10.92
2018-01-05T00:56:36.631Z,10.73
2018-01-05T00:57:36.695Z,10.66
2018-01-05T00:58:36.723Z,10.65
2018-01-05T00:59:36.771Z,10.63
2018-01-05T01:00:36.820Z,10.62
2018-01-05T01:01:36.866Z,10.52
2018-01-05T01:02:36.927Z,10.60
2018-01-05T01:03:36.975Z,10.44
2018-01-05T01:04:37.003Z,10.43
2018-01-05T01:05:37.048Z,10.46
2018-01-05T01:06:37.094Z,10.52
2018-01-05T01:07:37.142Z,10.39
2018-01-05T01:08:37.204Z,10.37
2018-01-05T01:09:37.242Z,10.30
2018-01-05T01:10:37.288Z,10.30
2018-01-05T01:11:37.327Z,10.26
2018-01-05T01:12:37.372Z,10.25
2018-01-05T01:13:37.451Z,10.14
2018-01-05T01:14:37.465Z,10.15
2018-01-05T01:15:37.518Z,10.25
2018-01-05T01:16:37.559Z,10.17
2018-01-05T01:17:37.603Z,10.25
2018-01-05T01:18:37.680Z,10.21
2018-01-05T01:19:37.697Z,10.19
2018-01-05T01:20:37.768Z,10.26
2018-01-05T01:21:37.790Z,10.22
2018-01-05T01:22:37.833Z,10.10
2018-01-05T01:23:37.899Z,10.17
2018-01-05T01:24:37.967Z,10.15
2018-01-05T01:25:37.972Z,10.18
2018-01-05T01:26:38.018Z,10.06
2018-01-05T01:27:38.066Z,10.15
2018-01-05T01:28:38.111Z,10.07
2018-01-05T01:29:38.173Z,10.21
2018-01-05T01:30:38.203Z,10.10
2018-01-05T01:31:38.260Z,10.03
2018-01-05T01:32:38.299Z,10.00
2018-01-05T01:33:38.350Z,10.07
2018-01-05T01:34:38.403Z,10.03
2018-01-05T01:35:38.449Z,10.04
2018-01-05T01:36:38.481Z,9.96
2018-01-05T01:37:38.524Z,10.00
2018-01-05T01:38:38.570Z,10.04
2018-01-05T01:39:38.619Z,9.96
2018-01-05T01:40:38.681Z,10.06
2018-01-05T01:41:38.709Z,10.00
2018-01-05T01:42:38.755Z,9.91
2018-01-05T01:43:38.802Z,9.94
2018-01-05T01:44:38.853Z,9.91
2018-01-05T01:45:38.912Z,9.99
2018-01-05T01:46:38.942Z,9.96
2018-01-05T01:47:38.989Z,9.96
2018-01-05T01:48:39.030Z,9.94
2018-01-05T01:49:39.076Z,9.99
2018-01-05T01:50:39.141Z,9.94
2018-01-05T01:51:39.168Z,9.96
2018-01-05T01:52:39.220Z,9.88
2018-01-05T01:53:39.264Z,10.00
2018-01-05T01:54:39.307Z,9.97
2018-01-05T01:55:39.373Z,9.97
2018-01-05T01:56:39.420Z,9.97
2018-01-05T01:57:39.451Z,9.88
2018-01-05T01:58:39.545Z,9.86
2018-01-05T01:59:39.538Z,9.94
2018-01-05T02:00:39.584Z,9.83
2018-01-05T02:01:39.644Z,9.96
2018-01-05T02:02:39.676Z,9.99
2018-01-05T02:03:39.722Z,9.94
2018-01-05T02:04:39.770Z,9.97
2018-01-05T02:05:39.814Z,9.96
2018-01-05T02:06:39.880Z,9.96
2018-01-05T02:07:39.923Z,9.94
2018-01-05T02:08:39.948Z,9.96
2018-01-05T02:09:39.998Z,9.96
2018-01-05T02:10:40.045Z,9.96
2018-01-05T02:11:40.090Z,9.91
2018-01-05T02:12:40.174Z,9.93
2018-01-05T02:13:40.186Z,9.96
2018-01-05T02:14:40.228Z,9.96
2018-01-05T02:15:40.275Z,9.88
2018-01-05T02:16:40.322Z,9.99
2018-01-05T02:17:40.382Z,9.88
2018-01-05T02:18:40.430Z,10.03
2018-01-05T02:19:40.459Z,9.94
2018-01-05T02:20:40.506Z,10.00
2018-01-05T02:21:40.551Z,9.91
2018-01-05T02:22:40.596Z,9.93
2018-01-05T02:23:40.679Z,9.85
2018-01-05T02:24:40.693Z,9.85
2018-01-05T02:25:40.734Z,9.85
2018-01-05T02:26:40.782Z,9.85
2018-01-05T02:27:40.827Z,9.85
2018-01-05T02:28:40.905Z,9.81
2018-01-05T02:29:40.918Z,9.82
2018-01-05T02:30:40.962Z,9.85
2018-01-05T02:31:41.010Z,9.88
2018-01-05T02:32:41.056Z,9.82
2018-01-05T02:33:41.136Z,9.78
2018-01-05T02:34:41.153Z,9.75
2018-01-05T02:35:41.194Z,9.75
2018-01-05T02:36:41.247Z,9.76
2018-01-05T02:37:41.287Z,9.75
2018-01-05T02:38:41.362Z,9.71
2018-01-05T02:39:41.378Z,9.75
2018-01-05T02:40:41.422Z,9.68
2018-01-05T02:41:41.469Z,9.57
2018-01-05T02:42:41.516Z,9.56
2018-01-05T02:43:41.595Z,9.56
2018-01-05T02:44:41.607Z,9.52
2018-01-05T02:45:41.651Z,9.49
2018-01-05T02:46:41.698Z,9.45
2018-01-05T02:47:41.742Z,9.48
2018-01-05T02:48:41.807Z,9.50
2018-01-05T02:49:41.834Z,9.43
2018-01-05T02:50:41.895Z,9.39
2018-01-05T02:51:41.925Z,9.39
2018-01-05T02:52:41.974Z,9.39
2018-01-05T02:53:42.017Z,9.34
2018-01-05T02:54:42.064Z,9.34
2018-01-05T02:55:42.125Z,9.31
2018-01-05T02:56:42.158Z,9.38
2018-01-05T02:57:42.200Z,9.34
2018-01-05T02:58:42.293Z,9.28
2018-01-05T02:59:42.290Z,9.20
2018-01-05T03:00:42.371Z,9.20
2018-01-05T03:01:42.382Z,9.18
2018-01-05T03:02:42.426Z,9.23
2018-01-05T03:03:42.473Z,9.18
2018-01-05T03:04:42.518Z,9.12
2018-01-05T03:05:42.583Z,9.15
2018-01-05T03:06:42.609Z,9.18
2018-01-05T03:07:42.657Z,9.20
2018-01-05T03:08:42.706Z,9.23
2018-01-05T03:09:42.749Z,9.12
2018-01-05T03:10:42.808Z,9.09
2018-01-05T03:11:42.844Z,9.10
2018-01-05T03:12:42.888Z,9.18
2018-01-05T03:13:42.931Z,9.15
2018-01-05T03:14:42.975Z,9.13
2018-01-05T03:15:43.045Z,9.10
2018-01-05T03:16:43.066Z,9.05
2018-01-05T03:17:43.115Z,9.02
2018-01-05T03:18:43.161Z,9.04
2018-01-05T03:19:43.208Z,9.06
2018-01-05T03:20:43.266Z,8.99
2018-01-05T03:21:43.293Z,9.04
2018-01-05T03:22:43.338Z,8.99
2018-01-05T03:23:43.384Z,8.90
2018-01-05T03:24:43.429Z,8.88
2018-01-05T03:25:43.493Z,8.90
2018-01-05T03:26:43.521Z,8.84
2018-01-05T03:27:43.569Z,8.73
2018-01-05T03:28:43.616Z,8.81
2018-01-05T03:29:43.656Z,8.81
2018-01-05T03:30:43.720Z,8.78
2018-01-05T03:31:43.765Z,8.81
2018-01-05T03:32:43.794Z,8.75
2018-01-05T03:33:43.838Z,8.75
2018-01-05T03:34:43.883Z,8.76
2018-01-05T03:35:43.937Z,8.84
2018-01-05T03:36:43.990Z,8.83
2018-01-05T03:37:44.021Z,8.84
2018-01-05T03:38:44.065Z,8.79
2018-01-05T03:39:44.110Z,8.73
2018-01-05T03:40:44.161Z,8.78
2018-01-05T03:41:44.218Z,8.73
2018-01-05T03:42:44.246Z,8.78
2018-01-05T03:43:44.300Z,8.75
2018-01-05T03:44:44.336Z,8.73
2018-01-05T03:45:44.382Z,8.73
2018-01-05T03:46:44.442Z,8.62
2018-01-05T03:47:44.473Z,8.76
2018-01-05T03:48:44.537Z,8.78
2018-01-05T03:49:44.564Z,8.65
2018-01-05T03:50:44.606Z,8.65
2018-01-05T03:51:44.660Z,8.76
2018-01-05T03:52:44.706Z,8.65
2018-01-05T03:53:44.763Z,8.65
2018-01-05T03:54:44.791Z,8.62
2018-01-05T03:55:44.840Z,8.51
2018-01-05T03:56:44.882Z,8.57
2018-01-05T03:57:44.926Z,8.57
2018-01-05T03:58:44.988Z,8.60
2018-01-05T03:59:45.024Z,8.57
2018-01-05T04:00:45.064Z,8.57
2018-01-05T04:01:45.109Z,8.57
2018-01-05T04:02:45.154Z,8.55
2018-01-05T04:03:45.215Z,8.55
2018-01-05T04:04:45.245Z,8.60
2018-01-05T04:05:45.293Z,8.53
2018-01-05T04:06:45.337Z,8.60
2018-01-05T04:07:45.386Z,8.55
2018-01-05T04:08:45.443Z,8.60
2018-01-05T04:09:45.475Z,8.58
2018-01-05T04:10:45.535Z,8.68
2018-01-05T04:11:45.563Z,8.60
2018-01-05T04:12:45.606Z,8.62
2018-01-05T04:13:45.651Z,8.68
2018-01-05T04:14:45.696Z,8.68
2018-01-05T04:15:45.756Z,8.55
2018-01-05T04:16:45.792Z,8.55
2018-01-05T04:17:45.834Z,8.58
2018-01-05T04:18:45.883Z,8.65
2018-01-05T04:19:45.923Z,8.62
2018-01-05T04:20:45.997Z,8.62
2018-01-05T04:21:46.013Z,8.62
2018-01-05T04:22:46.058Z,8.57
2018-01-05T04:23:46.103Z,8.58
2018-01-05T04:24:46.149Z,8.65
2018-01-05T04:25:46.217Z,8.54
2018-01-05T04:26:46.238Z,8.57
2018-01-05T04:27:46.289Z,8.60
2018-01-05T04:28:46.330Z,8.53
2018-01-05T04:29:46.375Z,8.57
2018-01-05T04:30:46.437Z,8.48
2018-01-05T04:31:46.485Z,8.50
2018-01-05T04:32:46.510Z,8.48
2018-01-05T04:33:46.555Z,8.45
2018-01-05T04:34:46.599Z,8.32
2018-01-05T04:35:46.645Z,8.36
2018-01-05T04:36:46.708Z,8.40
2018-01-05T04:37:46.736Z,8.22
2018-01-05T04:38:46.781Z,8.20
2018-01-05T04:39:46.827Z,8.22
2018-01-05T04:40:46.872Z,8.20
2018-01-05T04:41:46.954Z,8.26
2018-01-05T04:42:46.961Z,8.22
2018-01-05T04:43:47.006Z,8.25
2018-01-05T04:44:47.055Z,8.12
2018-01-05T04:45:47.098Z,8.20
2018-01-05T04:46:47.176Z,8.14
2018-01-05T04:47:47.189Z,8.11
2018-01-05T04:48:47.233Z,8.11
2018-01-05T04:49:47.280Z,8.12
2018-01-05T04:50:47.325Z,8.12
2018-01-05T04:51:47.384Z,8.14
2018-01-05T04:52:47.415Z,8.14
2018-01-05T04:53:47.460Z,8.15
2018-01-05T04:54:47.526Z,8.10
2018-01-05T04:55:47.552Z,8.10
2018-01-05T04:56:47.596Z,8.11
2018-01-05T04:57:47.642Z,8.15
2018-01-05T04:58:47.687Z,8.14
2018-01-05T04:59:47.747Z,8.15
2018-01-05T05:00:47.772Z,8.20
2018-01-05T05:01:47.822Z,8.15
2018-01-05T05:02:47.881Z,8.14
2018-01-05T05:03:47.910Z,8.14
2018-01-05T05:04:47.958Z,8.14
2018-01-05T05:05:48.019Z,8.12
2018-01-05T05:06:48.051Z,8.14
2018-01-05T05:07:48.098Z,8.11
2018-01-05T05:08:48.138Z,8.08
2018-01-05T05:09:48.182Z,8.11
2018-01-05T05:10:48.241Z,8.20
2018-01-05T05:11:48.271Z,8.12
2018-01-05T05:12:48.316Z,8.29
2018-01-05T05:13:48.377Z,8.11
2018-01-05T05:14:48.413Z,8.15
2018-01-05T05:15:48.453Z,8.10
2018-01-05T05:16:48.496Z,8.15
2018-01-05T05:17:48.559Z,8.12
2018-01-05T05:18:48.587Z,8.17
2018-01-05T05:19:48.632Z,8.12
2018-01-05T05:20:48.678Z,8.20
2018-01-05T05:21:48.724Z,8.17
2018-01-05T05:22:48.783Z,8.11
2018-01-05T05:23:48.813Z,8.12
2018-01-05T05:24:48.858Z,8.02
2018-01-05T05:25:48.924Z,8.10
2018-01-05T05:26:48.948Z,8.02
2018-01-05T05:27:49.009Z,7.94
2018-01-05T05:28:49.037Z,7.96
2018-01-05T05:29:49.083Z,7.94
2018-01-05T05:30:49.165Z,7.93
2018-01-05T05:31:49.173Z,7.90
2018-01-05T05:32:49.223Z,7.85
2018-01-05T05:33:49.265Z,7.77
2018-01-05T05:34:49.311Z,7.60
2018-01-05T05:35:49.384Z,7.62
2018-01-05T05:36:49.397Z,7.45
2018-01-05T05:37:49.442Z,7.44
2018-01-05T05:38:49.486Z,7.49
2018-01-05T05:39:49.532Z,7.49
2018-01-05T05:40:49.612Z,7.47
2018-01-05T05:41:49.628Z,7.50
2018-01-05T05:42:49.666Z,7.59
2018-01-05T05:43:49.711Z,7.58
2018-01-05T05:44:49.793Z,7.55
2018-01-05T05:45:49.824Z,7.66
2018-01-05T05:46:49.847Z,7.59
2018-01-05T05:47:49.891Z,7.59
2018-01-05T05:48:50.846Z,7.71
2018-01-05T05:49:49.980Z,7.66
2018-01-05T05:50:50.025Z,7.60
2018-01-05T05:51:50.086Z,7.49
2018-01-05T05:52:50.115Z,7.47
2018-01-05T05:53:50.161Z,7.62
2018-01-05T05:54:50.205Z,7.60
2018-01-05T05:55:50.251Z,7.58
2018-01-05T05:56:50.333Z,7.63
2018-01-05T05:57:50.336Z,7.56
2018-01-05T05:58:50.385Z,7.56
2018-01-05T05:59:50.429Z,7.62
2018-01-05T06:00:50.477Z,7.58
2018-01-05T06:01:50.538Z,7.53
2018-01-05T06:02:50.564Z,7.52
2018-01-05T06:03:50.606Z,7.40
2018-01-05T06:04:50.672Z,7.35
2018-01-05T06:05:50.698Z,7.41
2018-01-05T06:06:50.744Z,7.31
2018-01-05T06:07:50.787Z,7.40
2018-01-05T06:08:50.834Z,7.42
2018-01-05T06:09:50.899Z,7.44
2018-01-05T06:10:50.921Z,7.45
2018-01-05T06:11:50.966Z,7.47
2018-01-05T06:12:51.010Z,7.49
2018-01-05T06:13:51.071Z,7.49
2018-01-05T06:14:51.097Z,7.45
2018-01-05T06:15:51.143Z,7.47
2018-01-05T06:16:51.188Z,7.47
2018-01-05T06:17:51.233Z,7.47
2018-01-05T06:18:51.299Z,7.49
2018-01-05T06:19:51.325Z,7.45
2018-01-05T06:20:51.371Z,7.40
2018-01-05T06:21:51.414Z,7.47
2018-01-05T06:22:51.463Z,7.42
2018-01-05T06:23:51.516Z,7.31
2018-01-05T06:24:51.547Z,7.26
2018-01-05T06:25:51.591Z,7.27
2018-01-05T06:26:51.636Z,7.29
2018-01-05T06:27:51.678Z,7.32
2018-01-05T06:28:51.742Z,7.24
2018-01-05T06:29:51.768Z,7.20
2018-01-05T06:30:51.812Z,7.13
2018-01-05T06:31:51.855Z,7.13
2018-01-05T06:32:51.900Z,7.09
2018-01-05T06:33:51.967Z,7.15
2018-01-05T06:34:51.989Z,7.13
2018-01-05T06:35:52.034Z,7.16
2018-01-05T06:36:52.079Z,7.22
2018-01-05T06:37:52.122Z,7.20
2018-01-05T06:38:52.182Z,7.23
2018-01-05T06:39:52.229Z,7.24
2018-01-05T06:40:52.256Z,7.26
2018-01-05T06:41:52.300Z,7.29
2018-01-05T06:42:52.345Z,7.42
2018-01-05T06:43:52.390Z,7.44
2018-01-05T06:44:52.456Z,7.47
2018-01-05T06:45:52.478Z,7.58
2018-01-05T06:46:52.526Z,7.63
2018-01-05T06:47:52.567Z,7.63
2018-01-05T06:48:52.612Z,7.71
2018-01-05T06:49:52.673Z,7.72
2018-01-05T06:50:52.700Z,7.72
2018-01-05T06:51:52.746Z,7.79
2018-01-05T06:52:52.791Z,7.92
2018-01-05T06:53:52.835Z,7.92
2018-01-05T06:54:52.896Z,7.94
2018-01-05T06:55:52.937Z,7.93
2018-01-05T06:56:52.970Z,7.85
2018-01-05T06:57:53.016Z,7.97
2018-01-05T06:58:53.057Z,8.00
2018-01-05T06:59:53.120Z,7.92
2018-01-05T07:00:53.148Z,7.90
2018-01-05T07:01:53.191Z,7.90
2018-01-05T07:02:53.235Z,7.79
2018-01-05T07:03:53.281Z,7.77
2018-01-05T07:04:53.343Z,7.72
2018-01-05T07:05:53.371Z,7.77
2018-01-05T07:06:53.430Z,7.84
2018-01-05T07:07:54.151Z,7.78
2018-01-05T07:08:53.503Z,7.75
2018-01-05T07:09:53.550Z,7.63
2018-01-05T07:10:53.611Z,7.66
2018-01-05T07:11:53.652Z,7.59
2018-01-05T07:12:53.680Z,7.60
2018-01-05T07:13:53.727Z,7.62
2018-01-05T07:14:53.771Z,7.58
2018-01-05T07:15:53.835Z,7.63
2018-01-05T07:16:53.858Z,7.60
2018-01-05T07:17:53.903Z,7.63
2018-01-05T07:18:53.947Z,7.60
2018-01-05T07:19:54.002Z,7.56
2018-01-05T07:20:54.056Z,7.62
2018-01-05T07:21:54.082Z,7.74
2018-01-05T07:22:54.124Z,7.87
2018-01-05T07:23:54.171Z,7.93
2018-01-05T07:24:54.213Z,8.00
2018-01-05T07:25:54.290Z,8.00
2018-01-05T07:26:54.304Z,7.97
2018-01-05T07:27:54.348Z,7.97
2018-01-05T07:28:55.174Z,7.94
2018-01-05T07:29:54.437Z,7.93
2018-01-05T07:30:54.496Z,7.92
2018-01-05T07:31:54.524Z,7.78
2018-01-05T07:32:54.586Z,7.85
2018-01-05T07:33:54.614Z,7.72
2018-01-05T07:34:54.657Z,7.71
2018-01-05T07:35:54.709Z,7.58
2018-01-05T07:36:54.747Z,7.60
2018-01-05T07:37:54.807Z,7.63
2018-01-05T07:38:54.836Z,7.60
2018-01-05T07:39:54.881Z,7.56
2018-01-05T07:40:54.924Z,7.44
2018-01-05T07:41:54.970Z,7.58
2018-01-05T07:42:55.031Z,7.47
2018-01-05T07:43:55.057Z,7.47
2018-01-05T07:44:55.108Z,7.67
2018-01-05T07:45:55.150Z,7.60
2018-01-05T07:46:55.194Z,7.56
2018-01-05T07:47:55.253Z,7.62
2018-01-05T07:48:55.279Z,7.58
2018-01-05T07:49:55.325Z,7.69
2018-01-05T07:50:55.367Z,7.75
2018-01-05T07:51:55.412Z,7.74
2018-01-05T07:52:55.473Z,7.82
2018-01-05T07:53:55.502Z,7.79
2018-01-05T07:54:55.587Z,7.82
2018-01-05T07:55:55.588Z,7.92
2018-01-05T07:56:55.643Z,7.97
2018-01-05T07:57:55.698Z,8.11
2018-01-05T07:58:55.725Z,8.12
2018-01-05T07:59:55.782Z,8.28
2018-01-05T08:00:55.812Z,8.33
2018-01-05T08:01:55.856Z,8.47
2018-01-05T08:02:55.917Z,8.90
2018-01-05T08:03:55.945Z,9.31
2018-01-05T08:04:55.991Z,10.06
2018-01-05T08:05:56.050Z,10.63
2018-01-05T08:06:56.082Z,10.91
2018-01-05T08:07:56.127Z,11.41
2018-01-05T08:08:56.172Z,11.57
2018-01-05T08:09:56.220Z,11.67
2018-01-05T08:10:56.278Z,11.61
2018-01-05T08:11:56.307Z,11.61
2018-01-05T08:12:56.355Z,11.97
2018-01-05T08:13:56.400Z,11.99
2018-01-05T08:14:56.453Z,11.93
2018-01-05T08:15:56.511Z,12.24
2018-01-05T08:16:56.546Z,12.26
2018-01-05T08:17:56.590Z,12.20
2018-01-05T08:18:56.633Z,12.05
2018-01-05T08:19:56.697Z,11.99
2018-01-05T08:20:57.352Z,11.77
2018-01-05T08:21:56.777Z,12.05
2018-01-05T08:22:56.838Z,12.39
2018-01-05T08:23:56.867Z,12.46
2018-01-05T08:24:56.933Z,12.67
2018-01-05T08:25:56.967Z,12.97
2018-01-05T08:26:57.011Z,12.87
2018-01-05T08:27:57.061Z,12.93
2018-01-05T08:28:57.117Z,13.14
2018-01-05T08:29:57.172Z,13.03
2018-01-05T08:30:57.206Z,12.99
2018-01-05T08:31:57.253Z,13.20
2018-01-05T08:32:57.300Z,13.27
2018-01-05T08:33:57.348Z,13.46
2018-01-05T08:34:57.413Z,13.46
2018-01-05T08:35:57.445Z,13.59
2018-01-05T08:36:57.496Z,13.81
2018-01-05T08:37:57.547Z,13.70
2018-01-05T08:38:57.589Z,13.55
2018-01-05T08:39:57.662Z,13.36
2018-01-05T08:40:57.686Z,13.52
2018-01-05T08:41:57.736Z,13.63
2018-01-05T08:42:57.784Z,13.03
2018-01-05T08:43:57.833Z,12.84
2018-01-05T08:44:57.901Z,12.77
2018-01-05T08:45:57.932Z,13.00
2018-01-05T08:46:57.978Z,12.99
2018-01-05T08:47:58.037Z,12.84
2018-01-05T08:48:58.080Z,12.77
2018-01-05T08:49:58.144Z,12.57
2018-01-05T08:50:59.162Z,12.39
2018-01-05T08:51:58.228Z,12.41
2018-01-05T08:52:58.274Z,12.27
2018-01-05T08:53:58.325Z,12.27
2018-01-05T08:54:58.387Z,12.08
2018-01-05T08:55:58.417Z,11.94
2018-01-05T08:56:58.470Z,11.72
2018-01-05T08:57:58.515Z,11.56
2018-01-05T08:58:58.563Z,11.54
2018-01-05T08:59:58.631Z,11.67
2018-01-05T09:00:58.661Z,11.68
2018-01-05T09:01:58.713Z,11.72
2018-01-05T09:02:58.756Z,11.87
2018-01-05T09:03:58.805Z,12.11
2018-01-05T09:04:59.842Z,12.20
2018-01-05T09:05:58.905Z,12.30
2018-01-05T09:06:58.947Z,12.27
2018-01-05T09:07:59.000Z,12.44
2018-01-05T09:08:59.050Z,12.87
2018-01-05T09:09:59.117Z,12.96
2018-01-05T09:10:59.143Z,12.93
2018-01-05T09:11:59.245Z,13.22
2018-01-05T09:12:59.240Z,13.09
2018-01-05T09:13:59.291Z,13.09
2018-01-05T09:14:59.340Z,13.33
2018-01-05T09:15:59.386Z,13.40
2018-01-05T09:16:59.454Z,13.52
2018-01-05T09:17:59.487Z,13.73
2018-01-05T09:18:59.539Z,13.55
2018-01-05T09:19:59.602Z,13.58
2018-01-05T09:20:59.632Z,13.17
2018-01-05T09:21:59.704Z,13.12
2018-01-05T09:22:59.730Z,13.11
2018-01-05T09:23:59.784Z,13.25
2018-01-05T09:24:59.844Z,13.18
2018-01-05T09:25:59.878Z,13.29
2018-01-05T09:26:59.934Z,13.32
2018-01-05T09:27:59.980Z,13.33
2018-01-05T09:29:00.033Z,13.56
2018-01-05T09:30:00.114Z,13.62
2018-01-05T09:31:00.125Z,13.67
2018-01-05T09:32:00.177Z,13.69
2018-01-05T09:33:00.225Z,13.76
2018-01-05T09:34:00.277Z,13.92
2018-01-05T09:35:00.358Z,13.69
2018-01-05T09:36:00.375Z,13.71
2018-01-05T09:37:00.433Z,13.73
2018-01-05T09:38:00.477Z,13.52
2018-01-05T09:39:00.526Z,13.47
2018-01-05T09:40:00.593Z,13.56
2018-01-05T09:41:00.629Z,13.58
2018-01-05T09:42:00.702Z,13.95
2018-01-05T09:43:00.734Z,14.16
2018-01-05T09:44:00.778Z,14.42
2018-01-05T09:45:00.832Z,14.61
2018-01-05T09:46:00.889Z,14.88
2018-01-05T09:47:00.958Z,14.94
2018-01-05T09:48:00.982Z,15.05
2018-01-05T09:49:01.034Z,14.71
2018-01-05T09:50:01.089Z,14.68
2018-01-05T09:51:01.142Z,14.99
2018-01-05T09:52:01.206Z,15.21
2018-01-05T09:53:01.241Z,15.30
2018-01-05T09:54:01.289Z,15.19
2018-01-05T09:55:01.346Z,15.27
2018-01-05T09:56:01.398Z,15.30
2018-01-05T09:57:01.460Z,15.28
2018-01-05T09:58:01.499Z,15.15
2018-01-05T09:59:01.566Z,14.71
2018-01-05T10:00:01.601Z,14.27
2018-01-05T10:01:01.653Z,14.16
2018-01-05T10:02:01.723Z,14.32
2018-01-05T10:03:01.784Z,14.17
2018-01-05T10:04:01.841Z,14.12
2018-01-05T10:05:01.863Z,13.84
2018-01-05T10:06:01.919Z,13.73
2018-01-05T10:07:01.966Z,13.62
2018-01-05T10:08:02.015Z,13.59
2018-01-05T10:09:02.098Z,13.71
2018-01-05T10:10:02.117Z,13.73
2018-01-05T10:11:02.167Z,13.71
2018-01-05T10:12:02.216Z,13.80
2018-01-05T10:13:02.284Z,13.65
2018-01-05T10:14:02.342Z,13.52
2018-01-05T10:15:02.374Z,13.59
2018-01-05T10:16:02.425Z,13.63
2018-01-05T10:17:02.476Z,13.94
2018-01-05T10:18:02.524Z,14.21
2018-01-05T10:19:03.377Z,14.37
2018-01-05T10:20:02.635Z,14.19
2018-01-05T10:21:02.674Z,14.27
2018-01-05T10:22:02.726Z,14.24
2018-01-05T10:23:02.774Z,14.21
2018-01-05T10:24:02.843Z,14.20
2018-01-05T10:25:02.878Z,14.21
2018-01-05T10:26:02.945Z,14.13
2018-01-05T10:27:02.980Z,13.95
2018-01-05T10:28:03.026Z,13.80
2018-01-05T10:29:03.078Z,13.67
2018-01-05T10:30:03.144Z,13.74
2018-01-05T10:31:03.177Z,13.62
2018-01-05T10:32:03.231Z,13.56
2018-01-05T10:33:03.286Z,13.51
2018-01-05T10:34:03.331Z,13.27
2018-01-05T10:35:03.397Z,13.18
2018-01-05T10:36:03.444Z,13.30
2018-01-05T10:37:03.476Z,13.24
2018-01-05T10:38:03.526Z,13.29
2018-01-05T10:39:03.581Z,13.33
2018-01-05T10:40:03.629Z,13.22
2018-01-05T10:41:03.694Z,13.12
2018-01-05T10:42:03.726Z,12.96
2018-01-05T10:43:03.775Z,12.82
2018-01-05T10:44:03.827Z,12.82
2018-01-05T10:45:03.875Z,12.89
2018-01-05T10:46:03.944Z,12.97
2018-01-05T10:47:03.972Z,13.00
2018-01-05T10:48:04.038Z,13.00
2018-01-05T10:49:04.069Z,13.02
2018-01-05T10:50:04.118Z,12.99
2018-01-05T10:51:04.169Z,12.97
2018-01-05T10:52:04.216Z,12.84
2018-01-05T10:53:04.304Z,12.77
2018-01-05T10:54:04.315Z,12.66
2018-01-05T10:55:04.365Z,12.48
2018-01-05T10:56:04.418Z,12.38
2018-01-05T10:57:04.463Z,12.31
2018-01-05T10:58:04.543Z,12.23
2018-01-05T10:59:04.560Z,12.19
2018-01-05T11:00:04.607Z,12.19
2018-01-05T11:01:04.655Z,12.21
2018-01-05T11:02:04.703Z,12.09
2018-01-05T11:03:04.784Z,12.24
2018-01-05T11:04:04.799Z,12.29
2018-01-05T11:05:04.847Z,12.41
2018-01-05T11:06:04.896Z,12.33
2018-01-05T11:07:04.943Z,12.39
2018-01-05T11:08:05.031Z,12.42
2018-01-05T11:09:05.041Z,12.44
2018-01-05T11:10:05.089Z,12.33
2018-01-05T11:11:05.136Z,12.26
2018-01-05T11:12:05.185Z,12.38
2018-01-05T11:13:05.268Z,12.30
2018-01-05T11:14:05.284Z,12.27
2018-01-05T11:15:05.331Z,12.26
2018-01-05T11:16:05.385Z,12.26
2018-01-05T11:17:05.426Z,12.16
2018-01-05T11:18:05.510Z,12.16
2018-01-05T11:19:05.527Z,12.11
2018-01-05T11:20:05.573Z,12.08
2018-01-05T11:21:05.623Z,12.05
2018-01-05T11:22:05.671Z,12.08
2018-01-05T11:23:05.754Z,12.08
2018-01-05T11:24:05.766Z,11.93
2018-01-05T11:25:05.809Z,11.82
2018-01-05T11:26:05.864Z,11.83
2018-01-05T11:27:05.910Z,11.77
2018-01-05T11:28:05.985Z,11.56
2018-01-05T11:29:06.004Z,11.57
2018-01-05T11:30:06.055Z,11.57
2018-01-05T11:31:06.101Z,11.53
2018-01-05T11:32:06.145Z,11.64
2018-01-05T11:33:06.218Z,11.67
2018-01-05T11:34:06.240Z,11.54
2018-01-05T11:35:06.304Z,11.52
2018-01-05T11:36:06.335Z,11.46
2018-01-05T11:37:06.384Z,11.47
2018-01-05T11:38:06.433Z,11.53
2018-01-05T11:39:06.501Z,11.59
2018-01-05T11:40:06.534Z,11.53
2018-01-05T11:41:06.573Z,11.52
2018-01-05T11:42:06.658Z,11.52
2018-01-05T11:43:06.669Z,11.57
2018-01-05T11:44:06.737Z,11.56
2018-01-05T11:45:06.764Z,11.56
2018-01-05T11:46:06.809Z,11.56
2018-01-05T11:47:06.857Z,11.68
2018-01-05T11:48:06.909Z,11.78
2018-01-05T11:49:06.972Z,11.75
2018-01-05T11:50:06.999Z,11.72
2018-01-05T11:51:07.050Z,11.65
2018-01-05T11:52:07.095Z,11.56
2018-01-05T11:53:07.140Z,11.61
2018-01-05T11:54:07.208Z,11.56
2018-01-05T11:55:07.242Z,11.52
2018-01-05T11:56:07.309Z,11.52
2018-01-05T11:57:07.332Z,11.52
2018-01-05T11:58:07.485Z,11.57
2018-01-05T11:59:07.428Z,11.52
2018-01-05T12:00:07.488Z,11.57
2018-01-05T12:01:07.594Z,11.53
2018-01-05T12:02:07.568Z,11.50
2018-01-05T12:03:07.616Z,11.54
2018-01-05T12:04:07.667Z,11.52
2018-01-05T12:05:07.712Z,11.53
2018-01-05T12:06:07.774Z,11.47
2018-01-05T12:07:07.804Z,11.52
2018-01-05T12:08:07.852Z,11.47
2018-01-05T12:09:07.900Z,11.47
2018-01-05T12:10:07.954Z,11.54
2018-01-05T12:11:08.008Z,11.49
2018-01-05T12:12:08.045Z,11.49
2018-01-05T12:13:08.089Z,11.47
2018-01-05T12:14:08.136Z,11.34
2018-01-05T12:15:08.182Z,11.32
2018-01-05T12:16:08.247Z,11.32
2018-01-05T12:17:08.279Z,11.29
2018-01-05T12:18:08.325Z,11.29
2018-01-05T12:19:08.373Z,11.34
2018-01-05T12:20:08.421Z,11.32
2018-01-05T12:21:08.478Z,11.31
2018-01-05T12:22:08.533Z,11.38
2018-01-05T12:23:08.562Z,11.35
2018-01-05T12:24:08.609Z,11.31
2018-01-05T12:25:08.660Z,11.32
2018-01-05T12:26:08.703Z,11.35
2018-01-05T12:27:08.773Z,11.34
2018-01-05T12:28:08.799Z,11.35
2018-01-05T12:29:08.843Z,11.27
2018-01-05T12:30:08.901Z,11.11
2018-01-05T12:31:08.954Z,11.13
2018-01-05T12:32:08.990Z,11.13
2018-01-05T12:33:09.032Z,10.98
2018-01-05T12:34:09.096Z,10.95
2018-01-05T12:35:09.126Z,10.94
2018-01-05T12:36:09.175Z,10.91
2018-01-05T12:37:09.256Z,11.01
2018-01-05T12:38:09.269Z,11.11
2018-01-05T12:39:09.315Z,11.07
2018-01-05T12:40:09.364Z,11.06
2018-01-05T12:41:09.409Z,11.11
2018-01-05T12:42:09.498Z,11.17
2018-01-05T12:43:09.512Z,11.14
2018-01-05T12:44:09.549Z,11.07
2018-01-05T12:45:09.598Z,11.02
2018-01-05T12:46:09.652Z,11.01
2018-01-05T12:47:09.709Z,11.01
2018-01-05T12:48:09.740Z,10.98
2018-01-05T12:49:09.801Z,11.03
2018-01-05T12:50:09.834Z,11.03
2018-01-05T12:51:09.880Z,10.92
2018-01-05T12:52:09.930Z,11.07
2018-01-05T12:53:09.975Z,10.89
2018-01-05T12:54:10.041Z,10.81
2018-01-05T12:55:10.116Z,10.83
2018-01-05T12:56:10.117Z,10.73
2018-01-05T12:57:10.165Z,10.73
2018-01-05T12:58:10.230Z,10.71
2018-01-05T12:59:10.256Z,10.71
2018-01-05T13:00:10.304Z,10.71
2018-01-05T13:01:10.353Z,10.76
2018-01-05T13:02:10.401Z,10.76
2018-01-05T13:03:10.463Z,10.78
2018-01-05T13:04:10.491Z,10.80
2018-01-05T13:05:10.555Z,10.73
2018-01-05T13:06:10.586Z,10.74
2018-01-05T13:07:10.635Z,10.78